Time;durP1;ratioP1;P1;durP2;ratioP2;P2;SDS_P1;SDS_P2;PMS_P1;PMS_P2;Temp;Humidity;BMP_temperature;BMP_pressure;BME280_temperature;BME280_humidity;BME280_pressure;Samples;Min_cycle;Max_cycle;Signal;HPM_P1;HPM_P2
2022/07/02 00:00:06;;;;;;;4.82;3.58;;;14.70;99.90;;;;;;5080529;28;20073;-63
2022/07/02 00:02:36;;;;;;;5.97;3.38;;;14.90;99.90;;;;;;5086396;28;20046;-61
2022/07/02 00:05:07;;;;;;;5.32;3.20;;;14.80;99.90;;;;;;5084633;28;20030;-62
2022/07/02 00:07:33;;;;;;;7.53;3.28;;;14.70;99.90;;;;;;5084497;28;20030;-62
2022/07/02 00:10:00;;;;;;;9.88;3.47;;;14.70;99.90;;;;;;5085758;28;20424;-62
2022/07/02 00:12:28;;;;;;;4.75;3.20;;;14.70;99.90;;;;;;5084840;28;20519;-61
2022/07/02 00:14:58;;;;;;;4.80;3.00;;;14.60;99.90;;;;;;5084719;28;20032;-62
2022/07/02 00:17:24;;;;;;;6.65;3.45;;;14.60;99.90;;;;;;5077999;28;20059;-61
2022/07/02 00:19:51;;;;;;;4.70;2.88;;;14.50;99.90;;;;;;5083397;28;20073;-62
2022/07/02 00:22:18;;;;;;;4.57;3.00;;;14.50;99.90;;;;;;5084464;28;20042;-62
2022/07/02 00:24:44;;;;;;;9.60;3.30;;;14.50;99.90;;;;;;5084658;28;20395;-61
2022/07/02 00:27:11;;;;;;;5.70;3.10;;;14.50;99.90;;;;;;5076893;28;20361;-61
2022/07/02 00:29:50;;;;;;;5.72;2.92;;;14.50;99.90;;;;;;5076342;28;20055;-62
2022/07/02 00:32:16;;;;;;;4.80;2.90;;;14.40;99.90;;;;;;5084324;28;20414;-63
2022/07/02 00:34:44;;;;;;;6.32;3.00;;;14.40;99.90;;;;;;5079625;28;20561;-61
2022/07/02 00:37:11;;;;;;;5.18;2.88;;;14.50;99.90;;;;;;5084241;28;20116;-60
2022/07/02 00:39:37;;;;;;;5.55;3.10;;;14.40;99.90;;;;;;5071468;28;20118;-61
2022/07/02 00:42:04;;;;;;;6.60;3.20;;;14.40;99.90;;;;;;5086982;28;20123;-61
2022/07/02 00:44:31;;;;;;;5.72;3.25;;;14.30;99.90;;;;;;5083950;28;20558;-61
2022/07/02 00:47:02;;;;;;;5.97;3.25;;;14.30;99.90;;;;;;5084214;28;20248;-61
2022/07/02 00:49:28;;;;;;;4.78;3.22;;;14.30;99.90;;;;;;5081528;28;20020;-61
2022/07/02 00:51:54;;;;;;;9.30;3.45;;;14.30;99.90;;;;;;5083107;28;20038;-61
2022/07/02 00:54:19;;;;;;;5.82;3.20;;;14.30;99.90;;;;;;5081948;28;20032;-61
2022/07/02 00:56:46;;;;;;;5.60;3.33;;;14.20;99.90;;;;;;5081448;28;20043;-61
2022/07/02 00:59:12;;;;;;;4.45;3.10;;;14.20;99.90;;;;;;5080358;28;20040;-61
2022/07/02 01:01:37;;;;;;;5.38;3.30;;;14.30;99.90;;;;;;5082342;28;20085;-62
2022/07/02 01:04:05;;;;;;;6.70;3.30;;;14.30;99.90;;;;;;5078597;28;20032;-60
2022/07/02 01:06:32;;;;;;;4.38;3.35;;;14.20;99.90;;;;;;5081617;28;20550;-62
2022/07/02 01:11:45;;;;;;;7.68;3.65;;;14.10;99.90;;;;;;5081704;28;20030;-61
2022/07/02 01:14:16;;;;;;;5.05;2.95;;;14.20;99.90;;;;;;5080571;28;20740;-62
2022/07/02 01:16:42;;;;;;;5.50;2.97;;;14.10;99.90;;;;;;5081216;28;20436;-61
2022/07/02 01:19:09;;;;;;;7.20;3.40;;;14.00;99.90;;;;;;5082441;28;20032;-61
2022/07/02 01:21:37;;;;;;;8.60;3.30;;;14.10;99.90;;;;;;5073774;28;20579;-60
2022/07/02 01:24:02;;;;;;;4.90;3.00;;;14.00;99.90;;;;;;5078938;28;20028;-62
2022/07/02 01:26:28;;;;;;;7.45;3.47;;;14.00;99.90;;;;;;5081910;28;20051;-62
2022/07/02 01:28:54;;;;;;;4.88;2.95;;;14.00;99.90;;;;;;5079784;28;20029;-62
2022/07/02 01:31:19;;;;;;;5.07;3.22;;;14.00;99.90;;;;;;5080470;28;20070;-62
2022/07/02 01:33:45;;;;;;;3.80;3.40;;;14.00;99.90;;;;;;5082563;28;20384;-61
2022/07/02 01:36:10;;;;;;;5.38;3.45;;;14.00;99.90;;;;;;5084232;28;20098;-60
2022/07/02 01:38:36;;;;;;;4.88;3.47;;;14.00;99.90;;;;;;5085652;28;20024;-60
2022/07/02 01:43:46;;;;;;;7.88;3.65;;;13.90;99.90;;;;;;5082054;28;20532;-61
2022/07/02 01:46:11;;;;;;;6.57;3.63;;;13.90;99.90;;;;;;5075705;28;20024;-60
2022/07/02 01:48:37;;;;;;;7.88;3.60;;;13.90;99.90;;;;;;5080194;28;20027;-61
2022/07/02 01:51:02;;;;;;;5.00;3.70;;;13.90;99.90;;;;;;5078230;28;20032;-60
2022/07/02 01:53:28;;;;;;;6.10;4.07;;;13.80;99.90;;;;;;5083597;28;20028;-60
2022/07/02 01:55:53;;;;;;;5.18;3.38;;;13.80;99.90;;;;;;5083365;28;20214;-60
2022/07/02 01:58:19;;;;;;;5.15;3.65;;;13.70;99.90;;;;;;5080384;28;20036;-62
2022/07/02 02:00:45;;;;;;;5.78;3.45;;;13.80;99.90;;;;;;5080458;28;20020;-61
2022/07/02 02:03:10;;;;;;;7.43;4.13;;;13.80;99.90;;;;;;5079825;28;20545;-61
2022/07/02 02:05:36;;;;;;;6.47;3.85;;;13.70;99.90;;;;;;5073610;28;20498;-62
2022/07/02 02:08:01;;;;;;;4.22;3.70;;;13.70;99.90;;;;;;5074207;28;20055;-60
2022/07/02 02:10:27;;;;;;;4.80;4.10;;;13.90;99.90;;;;;;5071821;28;20077;-62
2022/07/02 02:12:52;;;;;;;4.45;3.75;;;13.80;99.90;;;;;;5079575;28;20117;-60
2022/07/02 02:15:18;;;;;;;5.72;3.85;;;13.70;99.90;;;;;;5080031;28;20032;-61
2022/07/02 02:17:43;;;;;;;7.05;4.10;;;13.70;99.90;;;;;;5079089;28;20039;-61
2022/07/02 02:20:10;;;;;;;7.82;4.00;;;13.80;99.90;;;;;;5082585;28;20259;-60
2022/07/02 02:22:35;;;;;;;5.40;4.07;;;13.70;99.90;;;;;;5076763;28;20027;-60
2022/07/02 02:25:01;;;;;;;7.45;4.10;;;13.70;99.90;;;;;;5082307;28;20201;-62
2022/07/02 02:27:26;;;;;;;6.05;4.60;;;13.60;99.90;;;;;;5082521;28;20088;-60
2022/07/02 02:29:52;;;;;;;7.50;5.07;;;13.50;99.90;;;;;;5080851;28;20348;-60
2022/07/02 02:32:18;;;;;;;9.05;5.10;;;13.60;99.90;;;;;;5080071;28;20050;-60
2022/07/02 02:34:44;;;;;;;6.78;5.20;;;13.60;99.90;;;;;;5087392;28;20074;-61
2022/07/02 02:37:09;;;;;;;7.18;4.78;;;13.60;99.90;;;;;;5080126;28;20400;-61
2022/07/02 02:39:35;;;;;;;6.50;5.20;;;13.70;99.90;;;;;;5069116;28;20035;-60
2022/07/02 02:42:00;;;;;;;5.65;4.55;;;13.60;99.90;;;;;;5086863;28;20522;-62
2022/07/02 02:44:26;;;;;;;7.07;4.97;;;13.70;99.90;;;;;;5084603;28;20027;-61
2022/07/02 02:46:52;;;;;;;8.57;4.97;;;13.70;99.90;;;;;;5076095;28;20033;-60
2022/07/02 02:49:17;;;;;;;8.20;4.90;;;13.70;99.90;;;;;;5080488;28;20020;-61
2022/07/02 02:51:43;;;;;;;8.07;4.55;;;13.70;99.90;;;;;;5082016;28;20034;-62
2022/07/02 02:54:11;;;;;;;5.88;4.65;;;13.60;99.90;;;;;;5080559;28;20281;-60
2022/07/02 02:56:36;;;;;;;7.03;4.82;;;13.60;99.90;;;;;;5082936;28;20036;-61
2022/07/02 02:59:02;;;;;;;7.00;4.80;;;13.70;99.90;;;;;;5078488;28;20035;-61
2022/07/02 03:01:27;;;;;;;7.30;4.65;;;13.60;99.90;;;;;;5071864;28;20044;-61
2022/07/02 03:03:53;;;;;;;11.43;5.07;;;13.60;99.90;;;;;;5083873;28;20038;-61
2022/07/02 03:06:20;;;;;;;6.03;4.80;;;13.60;99.90;;;;;;5082918;28;20115;-61
2022/07/02 03:08:45;;;;;;;6.30;4.78;;;13.50;99.90;;;;;;5077147;28;20024;-61
2022/07/02 03:11:11;;;;;;;5.82;4.43;;;13.40;99.90;;;;;;5081794;28;20035;-60
2022/07/02 03:13:36;;;;;;;6.57;4.75;;;13.50;99.90;;;;;;5080975;28;20103;-62
2022/07/02 03:16:02;;;;;;;8.02;4.93;;;13.50;99.90;;;;;;5080178;28;20032;-61
2022/07/02 03:18:27;;;;;;;10.00;5.10;;;13.60;99.90;;;;;;5080683;28;20748;-61
2022/07/02 03:20:53;;;;;;;8.88;4.90;;;13.60;99.90;;;;;;5079515;28;20032;-61
2022/07/02 03:23:19;;;;;;;8.40;4.82;;;13.50;99.90;;;;;;5078775;28;20028;-61
2022/07/02 03:25:44;;;;;;;9.25;4.88;;;13.60;99.90;;;;;;5077991;28;20411;-60
2022/07/02 03:28:10;;;;;;;10.18;4.75;;;13.60;99.90;;;;;;5091902;28;20020;-60
2022/07/02 03:30:35;;;;;;;9.30;4.93;;;13.60;99.90;;;;;;5075172;28;20106;-61
2022/07/02 03:33:01;;;;;;;7.75;4.72;;;13.60;99.90;;;;;;5075879;28;20058;-61
2022/07/02 03:35:26;;;;;;;7.03;5.00;;;13.60;99.90;;;;;;5080023;28;20031;-61
2022/07/02 03:37:52;;;;;;;7.13;5.18;;;13.50;99.90;;;;;;5079587;28;20515;-61
2022/07/02 03:40:18;;;;;;;9.23;4.90;;;13.60;99.90;;;;;;5078870;28;20108;-62
2022/07/02 03:42:43;;;;;;;11.65;4.68;;;13.50;99.90;;;;;;5072607;28;20031;-59
2022/07/02 03:45:09;;;;;;;9.50;4.45;;;13.50;99.90;;;;;;5085060;28;20161;-61
2022/07/02 03:47:35;;;;;;;7.63;4.32;;;13.50;99.90;;;;;;5083812;28;20063;-60
2022/07/02 03:50:01;;;;;;;7.75;4.68;;;13.40;99.90;;;;;;5080363;28;20098;-60
2022/07/02 03:52:26;;;;;;;8.88;4.80;;;13.40;99.90;;;;;;5083456;28;20028;-62
2022/07/02 03:54:52;;;;;;;7.43;4.45;;;13.40;99.90;;;;;;5088152;28;20185;-60
2022/07/02 03:57:17;;;;;;;9.13;4.57;;;13.40;99.90;;;;;;5082568;28;20036;-60
2022/07/02 03:59:43;;;;;;;9.30;5.15;;;13.50;99.90;;;;;;5078937;28;20028;-60
2022/07/02 04:02:08;;;;;;;6.60;4.60;;;13.40;99.90;;;;;;5085559;28;20016;-60
2022/07/02 04:04:34;;;;;;;10.15;5.45;;;13.40;99.90;;;;;;5082295;28;20032;-61
2022/07/02 04:07:00;;;;;;;8.00;5.85;;;13.50;99.90;;;;;;5079603;28;20406;-59
2022/07/02 04:09:25;;;;;;;7.70;6.10;;;13.50;99.90;;;;;;5089335;28;20036;-61
2022/07/02 04:11:51;;;;;;;11.45;6.35;;;13.40;99.90;;;;;;5076315;28;20404;-59
2022/07/02 04:14:16;;;;;;;9.68;6.97;;;13.50;99.90;;;;;;5079589;28;20032;-62
2022/07/02 04:16:42;;;;;;;14.20;7.32;;;13.50;99.90;;;;;;5078296;28;20263;-61
2022/07/02 04:19:07;;;;;;;10.63;7.10;;;13.60;99.90;;;;;;5084035;28;20028;-61
2022/07/02 04:21:33;;;;;;;13.15;7.13;;;13.60;99.90;;;;;;5083224;28;20034;-59
2022/07/02 04:23:59;;;;;;;12.32;6.40;;;13.60;99.90;;;;;;5084557;28;20085;-60
2022/07/02 04:26:24;;;;;;;11.20;6.68;;;13.70;99.90;;;;;;5088890;28;20031;-61
2022/07/02 04:28:50;;;;;;;9.02;5.93;;;13.70;99.90;;;;;;5075575;28;20036;-60
2022/07/02 04:31:15;;;;;;;9.65;6.15;;;13.70;99.90;;;;;;5075948;28;20028;-60
2022/07/02 04:33:45;;;;;;;8.88;5.78;;;13.80;99.90;;;;;;5086496;28;20123;-60
2022/07/02 04:36:11;;;;;;;7.70;5.85;;;13.90;99.90;;;;;;5087047;28;20856;-60
2022/07/02 04:38:39;;;;;;;9.80;6.32;;;13.90;99.90;;;;;;5084358;28;20035;-60
2022/07/02 04:41:04;;;;;;;8.05;5.50;;;14.10;99.90;;;;;;5081928;28;20025;-60
2022/07/02 04:43:30;;;;;;;16.38;6.47;;;14.10;99.90;;;;;;5080275;28;20019;-61
2022/07/02 04:45:55;;;;;;;9.73;6.07;;;14.20;99.90;;;;;;5082390;28;20310;-60
2022/07/02 04:48:21;;;;;;;11.20;6.28;;;14.30;99.90;;;;;;5083700;28;20085;-62
2022/07/02 04:50:46;;;;;;;11.65;6.60;;;14.50;99.90;;;;;;5088869;28;20032;-60
2022/07/02 04:53:12;;;;;;;14.25;6.80;;;14.50;99.90;;;;;;5083342;28;20031;-61
2022/07/02 04:55:38;;;;;;;14.43;7.15;;;14.70;99.90;;;;;;5079356;28;20093;-60
2022/07/02 04:58:03;;;;;;;10.70;6.65;;;14.90;99.90;;;;;;5080968;28;20475;-61
2022/07/02 05:00:29;;;;;;;8.55;5.93;;;14.90;99.90;;;;;;5076591;28;20044;-60
2022/07/02 05:02:55;;;;;;;12.50;6.30;;;14.90;99.90;;;;;;5085689;28;20034;-61
2022/07/02 05:05:20;;;;;;;9.95;6.10;;;14.90;99.90;;;;;;5076674;28;20073;-60
2022/07/02 05:07:46;;;;;;;11.40;6.72;;;15.00;99.90;;;;;;5076888;28;20465;-62
2022/07/02 05:10:12;;;;;;;10.60;6.35;;;15.10;99.90;;;;;;5082441;28;20381;-60
2022/07/02 05:12:38;;;;;;;13.82;6.32;;;15.10;99.90;;;;;;5081521;28;20031;-60
2022/07/02 05:15:04;;;;;;;10.07;6.03;;;15.10;99.90;;;;;;5076896;28;20019;-62
2022/07/02 05:17:30;;;;;;;11.77;6.10;;;15.20;99.90;;;;;;5074379;28;20040;-62
2022/07/02 05:19:55;;;;;;;9.88;6.07;;;15.30;99.90;;;;;;5086557;28;20043;-60
2022/07/02 05:22:21;;;;;;;14.18;6.68;;;15.50;99.90;;;;;;5080404;28;20028;-60
2022/07/02 05:24:46;;;;;;;13.65;6.53;;;15.70;99.90;;;;;;5080322;28;20031;-60
2022/07/02 05:27:12;;;;;;;10.95;5.90;;;15.90;99.90;;;;;;5081125;28;20046;-62
2022/07/02 05:29:37;;;;;;;13.52;6.28;;;15.90;99.90;;;;;;5081196;28;20024;-61
2022/07/02 05:32:03;;;;;;;11.43;6.13;;;15.90;99.90;;;;;;5089053;28;20028;-61
2022/07/02 05:34:29;;;;;;;11.70;6.65;;;16.10;99.90;;;;;;5081300;28;20020;-61
2022/07/02 05:36:54;;;;;;;8.32;5.70;;;16.10;99.90;;;;;;5081584;28;20102;-60
2022/07/02 05:39:20;;;;;;;11.35;5.57;;;16.30;99.90;;;;;;5082032;28;20125;-62
2022/07/02 05:41:46;;;;;;;14.00;6.15;;;16.10;99.90;;;;;;5084395;28;20032;-62
2022/07/02 05:44:11;;;;;;;9.77;5.43;;;16.20;99.90;;;;;;5082442;28;20035;-61
2022/07/02 05:46:37;;;;;;;10.35;5.28;;;16.40;99.90;;;;;;5083000;28;20108;-61
2022/07/02 05:49:02;;;;;;;12.82;5.57;;;16.40;99.90;;;;;;5080488;28;20026;-60
2022/07/02 05:51:28;;;;;;;10.07;6.00;;;16.40;99.90;;;;;;5076613;28;20423;-61
2022/07/02 05:53:53;;;;;;;9.07;5.20;;;16.60;99.90;;;;;;5090220;28;20470;-61
2022/07/02 05:56:19;;;;;;;11.90;6.10;;;16.70;99.90;;;;;;5084069;28;20408;-61
2022/07/02 05:58:44;;;;;;;13.77;5.55;;;16.80;99.90;;;;;;5074191;28;20463;-61
2022/07/02 06:01:10;;;;;;;13.02;5.80;;;17.00;99.90;;;;;;5076264;28;20494;-60
2022/07/02 06:03:36;;;;;;;10.27;5.30;;;17.20;99.90;;;;;;5083614;28;20028;-61
2022/07/02 06:08:46;;;;;;;11.55;4.80;;;17.20;99.90;;;;;;5075942;28;20064;-61
2022/07/02 06:11:11;;;;;;;11.80;5.43;;;17.20;99.90;;;;;;5076046;28;20059;-62
2022/07/02 06:13:37;;;;;;;10.88;4.90;;;17.30;99.90;;;;;;5080828;28;20020;-61
2022/07/02 06:16:03;;;;;;;11.90;4.88;;;17.50;99.90;;;;;;5079266;28;20023;-63
2022/07/02 06:18:29;;;;;;;12.20;4.93;;;17.60;99.90;;;;;;5078579;28;20031;-62
2022/07/02 06:20:54;;;;;;;8.88;4.90;;;17.60;99.90;;;;;;5077959;28;20682;-62
2022/07/02 06:23:21;;;;;;;13.75;5.88;;;17.70;99.90;;;;;;5074293;28;20025;-63
2022/07/02 06:25:48;;;;;;;13.88;5.38;;;17.80;99.90;;;;;;5075323;28;20031;-63
2022/07/02 06:28:13;;;;;;;12.18;5.00;;;17.90;99.90;;;;;;5072318;28;20476;-63
2022/07/02 06:30:39;;;;;;;10.15;4.95;;;18.00;99.90;;;;;;5079475;28;20032;-62
2022/07/02 06:33:04;;;;;;;14.55;4.90;;;18.10;99.90;;;;;;5076574;28;20032;-63
2022/07/02 06:35:30;;;;;;;14.10;4.43;;;18.10;99.90;;;;;;5076516;28;20021;-61
2022/07/02 06:37:55;;;;;;;11.82;4.53;;;18.10;99.90;;;;;;5076685;28;20583;-62
2022/07/02 06:40:21;;;;;;;9.32;4.25;;;18.20;99.90;;;;;;5082764;28;20490;-61
2022/07/02 06:42:47;;;;;;;11.35;4.53;;;18.30;99.90;;;;;;5082572;28;20031;-61
2022/07/02 06:45:12;;;;;;;9.50;4.75;;;18.30;99.90;;;;;;5074135;28;20582;-61
2022/07/02 06:47:42;;;;;;;10.75;4.47;;;18.50;99.90;;;;;;5079716;28;20052;-62
2022/07/02 06:50:09;;;;;;;14.18;4.30;;;18.70;99.90;;;;;;5080200;28;20775;-62
2022/07/02 06:52:34;;;;;;;11.90;4.40;;;18.80;99.90;;;;;;5093810;27;20071;-62
2022/07/02 06:55:00;;;;;;;11.20;4.45;;;18.90;99.90;;;;;;5080305;28;20095;-62
2022/07/02 06:57:26;;;;;;;11.90;3.75;;;19.00;99.90;;;;;;5085104;28;20387;-63
2022/07/02 06:59:53;;;;;;;12.75;3.70;;;19.00;99.90;;;;;;5077685;28;20062;-62
2022/07/02 07:02:18;;;;;;;11.00;3.08;;;19.10;99.90;;;;;;5078286;28;20029;-62
2022/07/02 07:04:44;;;;;;;10.32;3.50;;;19.20;99.90;;;;;;5083664;28;20368;-62
2022/07/02 07:07:10;;;;;;;10.55;3.67;;;19.20;99.90;;;;;;5078347;28;20028;-64
2022/07/02 07:09:36;;;;;;;10.50;3.03;;;19.30;99.90;;;;;;5083569;28;20052;-63
2022/07/02 07:12:06;;;;;;;8.85;2.90;;;19.60;99.90;;;;;;5077997;28;20028;-63
2022/07/02 07:14:33;;;;;;;8.13;3.10;;;19.40;99.90;;;;;;5080717;28;20074;-63
2022/07/02 07:16:59;;;;;;;9.85;2.78;;;19.40;99.90;;;;;;5080559;28;20051;-63
2022/07/02 07:19:25;;;;;;;13.00;2.25;;;19.60;99.90;;;;;;5078612;28;20072;-63
2022/07/02 07:21:50;;;;;;;7.65;2.00;;;19.70;99.90;;;;;;5078304;28;20532;-62
2022/07/02 07:24:16;;;;;;;7.20;4.30;;;19.70;99.90;;;;;;5081698;28;20063;-64
2022/07/02 07:26:42;;;;;;;9.57;5.15;;;19.90;99.90;;;;;;5080338;28;20033;-63
2022/07/02 07:29:07;;;;;;;7.22;2.28;;;20.10;99.90;;;;;;5085207;28;20398;-63
2022/07/02 07:31:34;;;;;;;8.30;1.80;;;20.00;99.90;;;;;;5074331;28;20445;-61
2022/07/02 07:34:01;;;;;;;6.47;1.95;;;20.10;99.90;;;;;;5077928;28;20013;-62
2022/07/02 07:36:27;;;;;;;5.57;1.90;;;20.20;99.90;;;;;;5081485;28;20039;-62
2022/07/02 07:38:53;;;;;;;6.97;2.22;;;20.20;99.90;;;;;;5082704;28;20596;-63
2022/07/02 07:41:21;;;;;;;7.40;1.77;;;20.30;99.90;;;;;;5080132;28;20419;-63
2022/07/02 07:43:47;;;;;;;6.00;1.67;;;20.50;99.90;;;;;;5084279;28;20113;-63
2022/07/02 07:46:13;;;;;;;9.73;1.60;;;20.50;99.90;;;;;;5077871;28;20034;-62
2022/07/02 07:48:38;;;;;;;4.15;1.30;;;20.50;99.90;;;;;;5082036;28;20388;-64
2022/07/02 07:51:07;;;;;;;4.65;1.20;;;20.40;99.90;;;;;;5076953;28;20024;-61
2022/07/02 07:53:33;;;;;;;5.65;1.20;;;20.50;99.90;;;;;;5086305;28;20115;-64
2022/07/02 07:55:59;;;;;;;4.53;1.45;;;20.50;99.90;;;;;;5086970;28;20150;-62
2022/07/02 07:58:25;;;;;;;6.20;1.58;;;20.70;99.90;;;;;;5083092;28;20036;-63
2022/07/02 08:00:50;;;;;;;2.58;1.30;;;20.80;99.90;;;;;;5081516;28;20028;-62
2022/07/02 08:03:19;;;;;;;6.20;1.63;;;20.70;99.90;;;;;;5084956;28;20379;-61
2022/07/02 08:05:46;;;;;;;3.75;1.38;;;20.80;99.90;;;;;;5079247;28;20035;-61
2022/07/02 08:08:15;;;;;;;3.88;1.20;;;20.80;99.90;;;;;;5088069;28;20067;-62
2022/07/02 08:10:41;;;;;;;3.03;1.17;;;21.00;99.90;;;;;;5086978;28;20075;-63
2022/07/02 08:13:06;;;;;;;3.22;1.00;;;21.00;99.90;;;;;;5078821;28;20028;-62
2022/07/02 08:15:32;;;;;;;2.97;1.10;;;21.00;99.90;;;;;;5082378;28;20039;-63
2022/07/02 08:17:58;;;;;;;3.47;1.17;;;21.10;99.90;;;;;;5075935;28;20099;-63
2022/07/02 08:20:24;;;;;;;4.28;1.10;;;21.30;99.90;;;;;;5076240;28;20020;-61
2022/07/02 08:22:51;;;;;;;4.35;1.00;;;21.30;99.90;;;;;;5081731;28;20067;-61
2022/07/02 08:25:18;;;;;;;2.33;0.70;;;21.20;99.90;;;;;;5083476;28;20028;-62
2022/07/02 08:27:45;;;;;;;4.72;1.20;;;21.20;99.90;;;;;;5100716;28;20055;-63
2022/07/02 08:30:11;;;;;;;2.45;0.88;;;21.40;99.90;;;;;;5085589;28;20054;-63
2022/07/02 08:32:37;;;;;;;4.72;0.90;;;21.50;99.90;;;;;;5078599;28;20096;-63
2022/07/02 08:35:03;;;;;;;35.28;27.90;;;21.50;99.90;;;;;;5084627;28;20036;-63
2022/07/02 08:37:30;;;;;;;9.48;6.75;;;21.50;99.90;;;;;;5077103;28;20039;-63
2022/07/02 08:39:56;;;;;;;2.83;0.85;;;21.60;99.90;;;;;;5079713;28;20020;-61
2022/07/02 08:42:30;;;;;;;2.50;0.73;;;21.50;99.90;;;;;;5076052;28;20032;-62
2022/07/02 08:45:01;;;;;;;4.53;0.90;;;21.70;99.90;;;;;;5079762;28;20578;-63
2022/07/02 08:47:28;;;;;;;3.65;1.15;;;21.80;99.90;;;;;;5080220;28;20078;-62
2022/07/02 08:49:55;;;;;;;3.90;1.15;;;21.80;99.90;;;;;;5080530;28;20024;-63
2022/07/02 08:52:23;;;;;;;10.68;1.30;;;21.90;99.90;;;;;;5083796;28;20557;-61
2022/07/02 08:54:50;;;;;;;5.90;1.08;;;21.90;99.90;;;;;;5081370;28;20027;-62
2022/07/02 08:57:16;;;;;;;1.42;0.73;;;21.90;99.90;;;;;;5083358;28;20159;-63
2022/07/02 08:59:42;;;;;;;4.38;1.00;;;22.10;99.90;;;;;;5077947;28;20465;-63
2022/07/02 09:02:13;;;;;;;2.05;0.73;;;22.10;99.90;;;;;;5084687;28;20024;-63
2022/07/02 09:04:42;;;;;;;4.32;0.73;;;22.30;99.90;;;;;;5078950;28;20499;-63
2022/07/02 09:07:12;;;;;;;3.33;0.88;;;22.10;99.90;;;;;;5078311;28;20020;-63
2022/07/02 09:09:41;;;;;;;3.33;0.70;;;22.10;99.90;;;;;;5081891;28;20027;-62
2022/07/02 09:12:12;;;;;;;3.40;0.73;;;22.40;99.90;;;;;;5083405;28;20039;-63
2022/07/02 09:14:38;;;;;;;2.70;0.70;;;22.30;99.90;;;;;;5078455;28;20016;-61
2022/07/02 09:17:06;;;;;;;3.60;0.80;;;22.40;99.90;;;;;;5082398;28;20024;-62
2022/07/02 09:19:32;;;;;;;3.17;0.77;;;22.40;99.90;;;;;;5078346;28;20047;-62
2022/07/02 09:21:57;;;;;;;2.70;0.70;;;22.60;99.90;;;;;;5075396;28;20024;-63
2022/07/02 09:24:30;;;;;;;3.10;0.70;;;22.60;99.90;;;;;;5077270;28;20036;-62
2022/07/02 09:27:00;;;;;;;3.70;0.83;;;22.80;99.90;;;;;;5084257;28;20120;-63
2022/07/02 09:29:26;;;;;;;3.08;0.60;;;22.70;99.90;;;;;;5078235;28;20323;-63
2022/07/02 09:31:52;;;;;;;2.72;0.82;;;22.90;99.90;;;;;;5078645;28;20028;-64
2022/07/02 09:34:27;;;;;;;1.48;0.77;;;22.70;99.90;;;;;;5082439;28;20493;-62
2022/07/02 09:36:53;;;;;;;4.85;0.70;;;22.90;99.90;;;;;;5083431;28;20068;-62
2022/07/02 09:39:31;;;;;;;3.75;0.75;;;23.10;99.90;;;;;;5082729;28;20480;-64
2022/07/02 09:41:57;;;;;;;3.03;0.70;;;23.10;99.90;;;;;;5077406;28;20029;-62
2022/07/02 09:44:25;;;;;;;2.08;0.70;;;22.80;99.90;;;;;;5077663;28;20480;-63
2022/07/02 09:46:51;;;;;;;2.35;0.70;;;22.70;99.90;;;;;;5078147;28;20217;-64
2022/07/02 09:49:17;;;;;;;3.28;0.88;;;22.90;99.90;;;;;;5076934;28;20566;-63
2022/07/02 09:51:53;;;;;;;3.20;0.70;;;23.30;99.90;;;;;;5086169;28;20080;-62
2022/07/02 09:54:23;;;;;;;1.80;0.65;;;23.10;99.90;;;;;;5078960;28;20020;-63
2022/07/02 09:56:57;;;;;;;4.18;0.75;;;23.20;99.90;;;;;;5083794;28;20021;-64
2022/07/02 09:59:23;;;;;;;4.05;0.70;;;23.40;99.90;;;;;;5073855;28;20021;-63
2022/07/02 10:01:49;;;;;;;3.33;0.73;;;23.70;99.90;;;;;;5081576;28;20044;-62
2022/07/02 10:04:15;;;;;;;3.28;0.82;;;23.70;99.90;;;;;;5087571;28;20035;-62
2022/07/02 10:06:44;;;;;;;4.10;0.73;;;23.60;99.90;;;;;;5082241;28;20036;-62
2022/07/02 10:09:12;;;;;;;3.45;0.90;;;23.60;99.90;;;;;;5089708;28;20101;-64
2022/07/02 10:11:38;;;;;;;1.80;0.60;;;23.70;99.90;;;;;;5076624;28;20039;-65
2022/07/02 10:14:04;;;;;;;3.90;0.80;;;23.90;99.90;;;;;;5089207;28;20023;-62
2022/07/02 10:16:30;;;;;;;3.08;0.85;;;23.90;99.90;;;;;;5085658;28;20384;-63
2022/07/02 10:18:58;;;;;;;3.75;0.82;;;23.70;99.90;;;;;;5079085;28;20026;-63
2022/07/02 10:21:24;;;;;;;2.55;0.90;;;23.90;99.90;;;;;;5080081;28;20318;-64
2022/07/02 10:23:51;;;;;;;2.45;0.60;;;24.00;99.90;;;;;;5076680;28;20568;-62
2022/07/02 10:26:17;;;;;;;2.90;0.60;;;24.10;99.90;;;;;;5077733;28;20474;-62
2022/07/02 10:28:43;;;;;;;4.70;0.70;;;24.10;99.90;;;;;;5083108;28;20631;-63
2022/07/02 10:31:15;;;;;;;2.95;0.70;;;24.20;99.90;;;;;;5072935;28;20036;-63
2022/07/02 10:34:01;;;;;;;3.08;0.70;;;24.30;99.90;;;;;;5080136;28;20531;-64
2022/07/02 10:36:27;;;;;;;6.00;0.95;;;24.10;99.90;;;;;;5083546;28;20437;-64
2022/07/02 10:38:58;;;;;;;2.17;0.57;;;24.10;99.90;;;;;;5078747;28;20024;-63
2022/07/02 10:41:31;;;;;;;2.10;0.90;;;23.90;99.90;;;;;;5086866;28;20027;-62
2022/07/02 10:43:58;;;;;;;1.52;0.60;;;23.90;99.90;;;;;;5082319;28;20040;-63
2022/07/02 10:46:26;;;;;;;3.70;0.80;;;24.00;99.90;;;;;;5079714;28;20494;-64
2022/07/02 10:48:53;;;;;;;4.50;0.85;;;24.20;99.90;;;;;;5074702;28;20023;-63
2022/07/02 10:51:32;;;;;;;3.00;0.82;;;24.20;99.90;;;;;;5079566;28;20032;-63
2022/07/02 10:54:00;;;;;;;3.42;0.70;;;24.00;99.90;;;;;;5082224;28;20422;-63
2022/07/02 10:56:30;;;;;;;5.93;0.90;;;23.90;99.90;;;;;;5080924;28;20020;-63
2022/07/02 10:58:56;;;;;;;2.33;0.77;;;24.00;99.90;;;;;;5075749;28;20119;-64
2022/07/02 11:01:23;;;;;;;4.78;0.80;;;24.00;99.90;;;;;;5087609;28;20040;-66
2022/07/02 11:03:59;;;;;;;2.38;0.70;;;24.10;99.90;;;;;;5088406;28;20021;-63
2022/07/02 11:06:29;;;;;;;5.28;0.93;;;24.20;99.90;;;;;;5083630;28;20282;-63
2022/07/02 11:09:00;;;;;;;1.92;0.70;;;24.20;99.90;;;;;;5087438;28;20016;-65
2022/07/02 11:11:46;;;;;;;2.33;0.60;;;24.20;99.90;;;;;;5075817;28;20602;-63
2022/07/02 11:14:13;;;;;;;2.90;0.90;;;24.00;99.90;;;;;;5084078;28;20088;-63
2022/07/02 11:16:41;;;;;;;5.47;0.95;;;24.10;99.90;;;;;;5085765;28;20020;-63
2022/07/02 11:19:24;;;;;;;3.28;0.63;;;24.40;99.90;;;;;;5088032;28;20042;-63
2022/07/02 11:21:58;;;;;;;4.55;0.80;;;24.60;99.90;;;;;;5089136;28;20074;-63
2022/07/02 11:24:26;;;;;;;3.50;0.85;;;24.60;99.90;;;;;;5082203;28;20047;-63
2022/07/02 11:26:52;;;;;;;2.70;0.60;;;24.40;99.90;;;;;;5084510;28;20107;-64
2022/07/02 11:29:18;;;;;;;6.43;0.80;;;24.40;99.90;;;;;;5083128;28;20028;-63
2022/07/02 11:31:53;;;;;;;2.35;0.70;;;24.30;99.90;;;;;;5085946;28;20028;-62
2022/07/02 11:34:20;;;;;;;2.80;0.80;;;24.20;99.90;;;;;;5092103;28;20062;-62
2022/07/02 11:36:46;;;;;;;2.05;0.68;;;24.20;99.90;;;;;;5083101;28;20316;-62
2022/07/02 11:39:15;;;;;;;5.28;0.82;;;24.30;99.90;;;;;;5084582;28;20119;-63
2022/07/02 11:41:42;;;;;;;1.98;0.70;;;24.10;99.90;;;;;;5087988;28;20487;-63
2022/07/02 11:44:16;;;;;;;2.95;0.80;;;24.10;99.90;;;;;;5084789;28;20111;-62
2022/07/02 11:46:46;;;;;;;1.55;0.70;;;24.20;99.90;;;;;;5084845;28;20615;-63
2022/07/02 11:49:18;;;;;;;3.35;0.85;;;24.40;99.90;;;;;;5085307;28;20403;-62
2022/07/02 11:51:45;;;;;;;2.67;0.85;;;24.40;99.90;;;;;;5086527;28;20297;-63
2022/07/02 11:54:12;;;;;;;2.35;0.90;;;24.50;99.90;;;;;;5092655;28;20429;-63
2022/07/02 11:56:38;;;;;;;1.70;0.70;;;24.60;99.90;;;;;;5090301;28;20024;-63
2022/07/02 11:59:06;;;;;;;3.13;0.93;;;24.50;99.90;;;;;;5087697;28;20036;-62
2022/07/02 12:01:33;;;;;;;3.00;0.68;;;24.30;99.90;;;;;;5083870;28;20063;-63
2022/07/02 12:04:04;;;;;;;2.63;0.80;;;24.50;99.90;;;;;;5084326;28;20051;-63
2022/07/02 12:06:38;;;;;;;6.18;1.15;;;24.60;99.90;;;;;;5086764;28;20517;-65
2022/07/02 12:09:07;;;;;;;2.20;0.80;;;24.70;99.90;;;;;;5089768;28;20077;-63
2022/07/02 12:11:34;;;;;;;3.42;1.05;;;24.80;99.90;;;;;;5092184;28;20020;-63
2022/07/02 12:14:01;;;;;;;2.67;0.68;;;25.00;99.90;;;;;;5083029;28;20039;-63
2022/07/02 12:16:27;;;;;;;2.33;0.80;;;24.80;99.90;;;;;;5082825;28;20012;-63
2022/07/02 12:19:14;;;;;;;2.20;0.60;;;24.80;99.90;;;;;;5083657;28;20024;-63
2022/07/02 12:21:46;;;;;;;2.30;0.70;;;24.70;99.90;;;;;;5079292;28;20110;-63
2022/07/02 12:24:31;;;;;;;3.83;0.80;;;24.80;99.90;;;;;;5082312;28;20593;-63
2022/07/02 12:27:08;;;;;;;4.65;0.77;;;24.50;99.90;;;;;;5086901;28;20028;-65
2022/07/02 12:29:55;;;;;;;3.22;0.88;;;24.30;99.90;;;;;;5073545;28;20444;-62
2022/07/02 12:32:31;;;;;;;5.30;0.95;;;24.60;99.90;;;;;;5085207;28;20043;-62
2022/07/02 12:35:06;;;;;;;1.98;0.65;;;24.70;99.90;;;;;;5082931;28;20036;-65
2022/07/02 12:37:37;;;;;;;7.90;0.90;;;24.50;99.90;;;;;;5085593;28;20024;-63
2022/07/02 12:40:06;;;;;;;3.03;0.70;;;24.70;99.90;;;;;;5095720;28;20039;-64
2022/07/02 12:42:42;;;;;;;2.35;0.70;;;25.00;99.90;;;;;;5082121;27;20036;-63
2022/07/02 12:45:09;;;;;;;4.15;0.85;;;25.00;99.90;;;;;;5087772;28;20106;-64
2022/07/02 12:47:37;;;;;;;2.33;0.80;;;25.10;99.90;;;;;;5078141;28;20024;-63
2022/07/02 12:50:14;;;;;;;2.53;0.52;;;25.20;99.90;;;;;;5085428;28;20106;-64
2022/07/02 12:52:46;;;;;;;4.88;0.88;;;25.10;99.90;;;;;;5087428;28;20256;-62